Time;durP1;ratioP1;P1;durP2;ratioP2;P2;SDS_P1;SDS_P2;PMS_P1;PMS_P2;Temp;Humidity;BMP_temperature;BMP_pressure;BME280_temperature;BME280_humidity;BME280_pressure;Samples;Min_cycle;Max_cycle;Signal;HPM_P1;HPM_P2
2023/10/24 00:02:17;;;;;;;24.73;10.93;;;;;;;;;;5133496;28;20019;-67
2023/10/24 00:05:03;;;;;;;19.92;10.30;;;;;;;;;;5134098;28;20016;-67
2023/10/24 00:07:49;;;;;;;20.88;10.35;;;;;;;;;;5135535;28;20027;-65
2023/10/24 00:10:35;;;;;;;24.13;10.75;;;;;;;;;;5135397;28;20074;-66
2023/10/24 00:13:21;;;;;;;23.02;10.48;;;;;;;;;;5136078;28;20043;-66
2023/10/24 00:16:07;;;;;;;22.27;10.63;;;;;;;;;;5133834;28;20024;-67
2023/10/24 00:18:52;;;;;;;27.02;11.68;;;;;;;;;;5135362;28;20099;-68
2023/10/24 00:21:38;;;;;;;23.15;11.38;;;;;;;;;;5136551;28;20011;-67
2023/10/24 00:24:25;;;;;;;26.60;11.32;;;;;;;;;;5136077;28;20045;-67
2023/10/24 00:27:12;;;;;;;21.42;11.02;;;;;;;;;;5136232;28;20024;-66
2023/10/24 00:29:57;;;;;;;22.83;10.90;;;;;;;;;;5135612;28;20030;-67
2023/10/24 00:32:43;;;;;;;30.85;11.90;;;;;;;;;;5136137;28;20031;-67
2023/10/24 00:35:28;;;;;;;26.25;11.82;;;;;;;;;;5137841;28;20026;-67
2023/10/24 00:38:14;;;;;;;21.50;11.02;;;;;;;;;;5135989;28;20016;-68
2023/10/24 00:40:59;;;;;;;24.75;11.20;;;;;;;;;;5136421;28;20071;-68
2023/10/24 00:43:45;;;;;;;25.00;12.25;;;;;;;;;;5136205;28;20023;-68
2023/10/24 00:46:31;;;;;;;28.00;12.15;;;;;;;;;;5103346;28;20043;-67
2023/10/24 00:49:16;;;;;;;21.38;11.38;;;;;;;;;;5118242;28;20062;-67
2023/10/24 00:52:02;;;;;;;22.05;11.35;;;;;;;;;;5118915;28;20424;-66
2023/10/24 00:54:48;;;;;;;23.23;11.43;;;;;;;;;;5120976;28;20114;-67
2023/10/24 00:57:34;;;;;;;21.25;11.70;;;;;;;;;;5122465;28;20024;-66
2023/10/24 01:00:21;;;;;;;21.70;10.70;;;;;;;;;;5123326;28;20069;-67
2023/10/24 01:03:07;;;;;;;23.75;12.05;;;;;;;;;;5122746;28;20034;-67
2023/10/24 01:05:53;;;;;;;28.38;11.77;;;;;;;;;;5102360;28;20011;-67
2023/10/24 01:08:39;;;;;;;21.75;11.88;;;;;;;;;;5117689;28;20024;-67
2023/10/24 01:11:25;;;;;;;21.75;11.82;;;;;;;;;;5117045;28;20034;-69
2023/10/24 01:14:10;;;;;;;22.83;10.68;;;;;;;;;;5116990;28;20102;-67
2023/10/24 01:16:56;;;;;;;21.35;11.05;;;;;;;;;;5100834;28;20027;-67
2023/10/24 01:19:42;;;;;;;21.35;10.07;;;;;;;;;;5116620;28;20046;-68
2023/10/24 01:22:27;;;;;;;23.88;11.40;;;;;;;;;;5121785;28;20027;-67
2023/10/24 01:25:14;;;;;;;17.48;8.98;;;;;;;;;;5112101;28;20019;-67
2023/10/24 01:28:00;;;;;;;21.20;8.70;;;;;;;;;;5130852;28;20026;-68
2023/10/24 01:30:46;;;;;;;18.67;8.73;;;;;;;;;;5125911;28;20024;-67
2023/10/24 01:33:31;;;;;;;15.77;8.45;;;;;;;;;;5121098;28;20088;-67
2023/10/24 01:36:17;;;;;;;16.17;7.65;;;;;;;;;;5123957;28;20035;-67
2023/10/24 01:39:03;;;;;;;20.08;7.20;;;;;;;;;;5126010;28;20027;-67
2023/10/24 01:41:49;;;;;;;18.27;6.93;;;;;;;;;;5114356;28;20023;-68
2023/10/24 01:44:34;;;;;;;14.95;7.53;;;;;;;;;;5128878;28;20071;-67
2023/10/24 01:47:20;;;;;;;17.13;6.90;;;;;;;;;;5114245;28;20020;-67
2023/10/24 01:50:06;;;;;;;16.73;6.65;;;;;;;;;;5120460;28;20043;-66
2023/10/24 01:52:51;;;;;;;22.33;7.22;;;;;;;;;;5127501;28;20047;-67
2023/10/24 01:55:37;;;;;;;15.18;6.25;;;;;;;;;;5134881;28;20016;-66
2023/10/24 01:58:22;;;;;;;12.73;6.10;;;;;;;;;;5132667;28;20016;-69
2023/10/24 02:01:08;;;;;;;13.02;6.47;;;;;;;;;;5133536;28;20020;-68
2023/10/24 02:03:55;;;;;;;12.73;6.63;;;;;;;;;;5132343;28;20503;-67
2023/10/24 02:06:41;;;;;;;15.30;6.60;;;;;;;;;;5134770;28;20054;-68
2023/10/24 02:09:29;;;;;;;14.27;6.75;;;;;;;;;;5134944;28;20046;-68
2023/10/24 02:12:15;;;;;;;15.20;7.25;;;;;;;;;;5136794;28;20053;-66
2023/10/24 02:15:01;;;;;;;13.75;6.90;;;;;;;;;;5134798;28;20023;-66
2023/10/24 02:17:46;;;;;;;13.35;6.32;;;;;;;;;;5133141;28;20045;-67
2023/10/24 02:20:32;;;;;;;12.20;6.20;;;;;;;;;;5120998;28;20034;-67
2023/10/24 02:23:18;;;;;;;17.20;5.97;;;;;;;;;;5120093;28;20030;-66
2023/10/24 02:26:04;;;;;;;16.67;6.03;;;;;;;;;;5117511;28;20410;-68
2023/10/24 02:28:49;;;;;;;16.58;6.30;;;;;;;;;;5117918;28;20101;-67
2023/10/24 02:31:35;;;;;;;13.52;5.80;;;;;;;;;;5115401;28;20347;-67
2023/10/24 02:34:21;;;;;;;13.68;5.97;;;;;;;;;;5115528;28;20024;-68
2023/10/24 02:37:06;;;;;;;12.98;6.15;;;;;;;;;;5100391;28;20069;-66
2023/10/24 02:39:52;;;;;;;12.63;6.40;;;;;;;;;;5115079;28;20020;-67
2023/10/24 02:42:37;;;;;;;14.98;6.30;;;;;;;;;;5115157;28;20077;-67
2023/10/24 02:45:23;;;;;;;10.82;5.68;;;;;;;;;;5114700;28;20020;-67
2023/10/24 02:48:09;;;;;;;13.93;5.82;;;;;;;;;;5114351;28;20016;-67
2023/10/24 02:50:55;;;;;;;12.88;6.10;;;;;;;;;;5113737;28;20360;-67
2023/10/24 02:53:40;;;;;;;11.68;5.50;;;;;;;;;;5100100;28;20478;-66
2023/10/24 02:56:26;;;;;;;12.95;5.68;;;;;;;;;;5119659;28;20035;-67
2023/10/24 02:59:12;;;;;;;10.30;5.43;;;;;;;;;;5117032;28;20054;-67
2023/10/24 03:01:57;;;;;;;12.57;5.80;;;;;;;;;;5114520;28;20102;-68
2023/10/24 03:04:43;;;;;;;13.63;6.20;;;;;;;;;;5114491;28;20080;-67
2023/10/24 03:07:29;;;;;;;12.32;5.57;;;;;;;;;;5115513;28;20160;-67
2023/10/24 03:10:14;;;;;;;14.70;6.15;;;;;;;;;;5114462;28;20023;-68
2023/10/24 03:13:02;;;;;;;12.80;5.93;;;;;;;;;;5114050;28;20055;-67
2023/10/24 03:15:48;;;;;;;13.77;6.13;;;;;;;;;;5115179;28;20054;-67
2023/10/24 03:18:34;;;;;;;16.92;6.20;;;;;;;;;;5112987;28;20353;-67
2023/10/24 03:21:20;;;;;;;15.82;6.50;;;;;;;;;;5114123;28;20048;-67
2023/10/24 03:24:06;;;;;;;15.35;6.18;;;;;;;;;;5114086;28;20020;-67
2023/10/24 03:26:52;;;;;;;13.45;5.90;;;;;;;;;;5114133;28;20015;-67
2023/10/24 03:29:37;;;;;;;17.30;6.00;;;;;;;;;;5114466;28;20337;-66
2023/10/24 03:32:23;;;;;;;19.02;6.28;;;;;;;;;;5114106;28;20432;-67
2023/10/24 03:35:08;;;;;;;12.15;5.63;;;;;;;;;;5115981;28;20026;-67
2023/10/24 03:37:54;;;;;;;14.32;6.35;;;;;;;;;;5114271;28;20118;-68
2023/10/24 03:40:39;;;;;;;13.82;6.22;;;;;;;;;;5112909;28;20022;-68
2023/10/24 03:43:25;;;;;;;17.05;6.15;;;;;;;;;;5117851;28;20019;-68
2023/10/24 03:46:11;;;;;;;19.42;6.00;;;;;;;;;;5118540;28;20051;-69
2023/10/24 03:48:57;;;;;;;16.75;6.53;;;;;;;;;;5117678;28;20031;-70
2023/10/24 03:51:43;;;;;;;16.02;6.55;;;;;;;;;;5116178;28;20442;-69
2023/10/24 03:54:29;;;;;;;18.20;6.07;;;;;;;;;;5102809;28;20019;-69
2023/10/24 03:57:15;;;;;;;18.55;6.40;;;;;;;;;;5115832;28;20035;-68
2023/10/24 04:00:01;;;;;;;18.48;6.13;;;;;;;;;;5118317;28;20106;-69
2023/10/24 04:02:50;;;;;;;14.77;6.55;;;;;;;;;;5117293;28;20023;-68
2023/10/24 04:05:35;;;;;;;17.88;6.53;;;;;;;;;;5118978;28;20339;-68
2023/10/24 04:08:21;;;;;;;19.35;6.80;;;;;;;;;;5116388;28;20277;-68
2023/10/24 04:11:16;;;;;;;12.23;6.10;;;;;;;;;;5116986;28;20310;-69
2023/10/24 04:14:04;;;;;;;15.30;6.40;;;;;;;;;;5117673;28;20055;-68
2023/10/24 04:16:50;;;;;;;17.45;6.13;;;;;;;;;;5117813;28;20102;-68
2023/10/24 04:19:36;;;;;;;17.13;6.82;;;;;;;;;;5116860;28;20062;-69
2023/10/24 04:22:21;;;;;;;16.83;6.05;;;;;;;;;;5104080;28;20406;-69
2023/10/24 04:25:07;;;;;;;22.60;6.50;;;;;;;;;;5116636;28;20027;-69
2023/10/24 04:27:53;;;;;;;16.00;6.57;;;;;;;;;;5116975;28;20036;-68
2023/10/24 04:30:39;;;;;;;23.17;7.72;;;;;;;;;;5117027;28;20084;-69
2023/10/24 04:33:24;;;;;;;13.85;6.63;;;;;;;;;;5117342;28;20034;-69
2023/10/24 04:36:11;;;;;;;18.40;6.78;;;;;;;;;;5117256;28;20027;-69
2023/10/24 04:38:56;;;;;;;15.93;6.88;;;;;;;;;;5101542;28;20333;-69
2023/10/24 04:41:44;;;;;;;18.65;6.70;;;;;;;;;;5117705;28;20024;-69
2023/10/24 04:44:30;;;;;;;12.20;6.05;;;;;;;;;;5101235;28;20012;-69
2023/10/24 04:47:16;;;;;;;16.52;6.72;;;;;;;;;;5102084;28;20050;-68
2023/10/24 04:50:03;;;;;;;17.27;7.38;;;;;;;;;;5115643;28;20101;-69
2023/10/24 04:52:49;;;;;;;19.42;7.25;;;;;;;;;;5115826;28;20412;-70
2023/10/24 04:55:35;;;;;;;16.65;7.80;;;;;;;;;;5116287;28;20037;-69
2023/10/24 04:58:21;;;;;;;19.58;7.40;;;;;;;;;;5116568;28;20042;-69
2023/10/24 05:01:06;;;;;;;15.27;6.72;;;;;;;;;;5115856;28;20020;-68
2023/10/24 05:03:52;;;;;;;22.17;7.05;;;;;;;;;;5116073;28;20008;-69
2023/10/24 05:06:38;;;;;;;17.35;7.03;;;;;;;;;;5116104;28;20016;-70
2023/10/24 05:09:23;;;;;;;22.40;7.50;;;;;;;;;;5116320;28;20024;-69
2023/10/24 05:12:09;;;;;;;19.83;7.38;;;;;;;;;;5115560;28;20026;-69
2023/10/24 05:14:54;;;;;;;19.80;7.45;;;;;;;;;;5101144;28;20351;-70
2023/10/24 05:17:40;;;;;;;16.65;7.20;;;;;;;;;;5101120;28;20030;-69
2023/10/24 05:20:26;;;;;;;21.02;7.50;;;;;;;;;;5125787;27;20016;-68
2023/10/24 05:23:11;;;;;;;35.72;9.40;;;;;;;;;;5124097;28;20019;-68
2023/10/24 05:25:57;;;;;;;21.45;8.00;;;;;;;;;;5117662;28;20034;-69
2023/10/24 05:28:43;;;;;;;23.95;8.20;;;;;;;;;;5118872;28;20047;-71
2023/10/24 05:31:28;;;;;;;23.08;8.52;;;;;;;;;;5101039;28;20023;-70
2023/10/24 05:34:14;;;;;;;29.67;8.07;;;;;;;;;;5116284;28;20038;-70
2023/10/24 05:37:00;;;;;;;25.10;7.50;;;;;;;;;;5115895;28;20077;-69
2023/10/24 05:39:45;;;;;;;19.75;7.25;;;;;;;;;;5115267;28;20034;-69
2023/10/24 05:42:31;;;;;;;20.25;7.85;;;;;;;;;;5101089;28;20065;-70
2023/10/24 05:45:17;;;;;;;18.38;7.20;;;;;;;;;;5115436;28;20024;-70
2023/10/24 05:48:03;;;;;;;19.23;7.35;;;;;;;;;;5114753;28;20031;-69
2023/10/24 05:50:48;;;;;;;20.45;7.78;;;;;;;;;;5114467;28;20048;-69
2023/10/24 05:53:34;;;;;;;16.48;8.18;;;;;;;;;;5114698;28;20072;-70
2023/10/24 05:56:19;;;;;;;15.75;9.45;;;;;;;;;;5116144;28;20110;-69
2023/10/24 05:59:06;;;;;;;22.73;9.18;;;;;;;;;;5116275;28;20043;-68
2023/10/24 06:01:52;;;;;;;19.70;8.88;;;;;;;;;;5114054;28;20098;-69
2023/10/24 06:04:38;;;;;;;18.33;7.90;;;;;;;;;;5113740;28;20092;-70
2023/10/24 06:07:23;;;;;;;33.42;10.18;;;;;;;;;;5117000;28;20088;-69
2023/10/24 06:10:09;;;;;;;23.33;9.52;;;;;;;;;;5115072;28;20024;-69
2023/10/24 06:12:54;;;;;;;16.48;8.27;;;;;;;;;;5101226;28;20444;-70
2023/10/24 06:15:40;;;;;;;20.27;9.00;;;;;;;;;;5101066;28;20020;-69
2023/10/24 06:18:26;;;;;;;19.02;8.52;;;;;;;;;;5115094;28;20020;-70
2023/10/24 06:21:12;;;;;;;19.90;9.25;;;;;;;;;;5113449;28;20474;-70
2023/10/24 06:23:58;;;;;;;20.35;8.60;;;;;;;;;;5114870;28;20031;-71
2023/10/24 06:26:43;;;;;;;15.90;8.60;;;;;;;;;;5114849;28;20035;-70
2023/10/24 06:29:29;;;;;;;18.13;8.45;;;;;;;;;;5113331;28;20119;-69
2023/10/24 06:32:15;;;;;;;21.65;9.25;;;;;;;;;;5115350;28;20028;-69
2023/10/24 06:35:00;;;;;;;23.45;8.55;;;;;;;;;;5115238;28;20043;-70
2023/10/24 06:37:46;;;;;;;21.60;8.13;;;;;;;;;;5114521;28;20030;-69
2023/10/24 06:40:31;;;;;;;23.23;8.57;;;;;;;;;;5100338;28;20062;-70
2023/10/24 06:43:18;;;;;;;18.95;8.38;;;;;;;;;;5114292;28;20033;-70
2023/10/24 06:46:04;;;;;;;18.00;8.18;;;;;;;;;;5099857;28;20447;-70
2023/10/24 06:48:51;;;;;;;22.23;9.30;;;;;;;;;;5114974;28;20027;-70
2023/10/24 06:51:37;;;;;;;20.08;7.88;;;;;;;;;;5113926;28;20192;-69
2023/10/24 06:54:22;;;;;;;20.55;8.35;;;;;;;;;;5099383;28;20371;-71
2023/10/24 06:57:08;;;;;;;16.05;7.80;;;;;;;;;;5098391;28;20097;-70
2023/10/24 06:59:54;;;;;;;24.05;8.63;;;;;;;;;;5114782;28;20110;-70
2023/10/24 07:02:40;;;;;;;17.45;8.18;;;;;;;;;;5113151;28;20030;-69
2023/10/24 07:05:27;;;;;;;24.35;8.68;;;;;;;;;;5114337;28;20023;-70
2023/10/24 07:08:12;;;;;;;25.20;8.52;;;;;;;;;;5113754;28;20053;-70
2023/10/24 07:10:58;;;;;;;15.98;7.63;;;;;;;;;;5113716;28;20093;-70
2023/10/24 07:13:44;;;;;;;24.08;7.80;;;;;;;;;;5113981;28;20023;-70
2023/10/24 07:16:29;;;;;;;22.05;7.93;;;;;;;;;;5117048;28;20015;-70
2023/10/24 07:19:15;;;;;;;15.07;8.27;;;;;;;;;;5118434;28;20458;-70
2023/10/24 07:22:01;;;;;;;17.08;8.48;;;;;;;;;;5118190;28;20354;-70
2023/10/24 07:24:47;;;;;;;20.10;9.57;;;;;;;;;;5116934;28;20012;-70
2023/10/24 07:27:32;;;;;;;16.77;8.93;;;;;;;;;;5117605;28;20019;-69
2023/10/24 07:30:18;;;;;;;22.55;8.82;;;;;;;;;;5117879;28;20097;-70
2023/10/24 07:33:04;;;;;;;22.75;9.30;;;;;;;;;;5118355;28;20023;-70
2023/10/24 07:35:50;;;;;;;19.92;8.98;;;;;;;;;;5118348;28;20130;-69
2023/10/24 07:38:36;;;;;;;17.35;8.23;;;;;;;;;;5117054;28;20035;-70
2023/10/24 07:41:22;;;;;;;20.85;8.48;;;;;;;;;;5117386;28;20460;-69
2023/10/24 07:44:07;;;;;;;20.00;8.80;;;;;;;;;;5117528;28;20019;-69
2023/10/24 07:46:53;;;;;;;26.40;9.15;;;;;;;;;;5117527;28;20051;-70
2023/10/24 07:49:38;;;;;;;24.92;8.60;;;;;;;;;;5116217;28;20047;-69
2023/10/24 07:52:24;;;;;;;18.15;8.70;;;;;;;;;;5117217;28;20050;-70
2023/10/24 07:55:10;;;;;;;18.25;8.25;;;;;;;;;;5101723;28;20040;-70
2023/10/24 07:57:58;;;;;;;24.33;9.30;;;;;;;;;;5102528;28;20023;-70
2023/10/24 08:00:44;;;;;;;19.17;8.52;;;;;;;;;;5102870;28;20020;-70
2023/10/24 08:03:29;;;;;;;19.13;8.68;;;;;;;;;;5102636;28;20034;-70
2023/10/24 08:06:15;;;;;;;21.02;9.43;;;;;;;;;;5117658;28;20094;-69
2023/10/24 08:09:00;;;;;;;19.27;8.73;;;;;;;;;;5117602;28;20012;-70
2023/10/24 08:11:46;;;;;;;27.42;9.85;;;;;;;;;;5116688;28;20336;-70
2023/10/24 08:14:32;;;;;;;30.20;8.80;;;;;;;;;;5117448;28;20035;-70
2023/10/24 08:17:17;;;;;;;21.35;9.25;;;;;;;;;;5117517;28;20051;-70
2023/10/24 08:20:04;;;;;;;22.98;8.48;;;;;;;;;;5117511;28;20414;-70
2023/10/24 08:22:51;;;;;;;30.88;9.15;;;;;;;;;;5116886;28;20094;-69
2023/10/24 08:25:36;;;;;;;20.73;8.77;;;;;;;;;;5117084;28;20387;-71
2023/10/24 08:28:22;;;;;;;18.98;7.65;;;;;;;;;;5115487;28;20058;-70
2023/10/24 08:31:08;;;;;;;18.25;7.93;;;;;;;;;;5117598;28;20019;-70
2023/10/24 08:33:53;;;;;;;15.90;7.75;;;;;;;;;;5116408;28;20035;-69
2023/10/24 08:36:39;;;;;;;23.25;8.73;;;;;;;;;;5115814;28;20073;-70
2023/10/24 08:39:25;;;;;;;22.75;7.80;;;;;;;;;;5118747;27;20020;-70
2023/10/24 08:42:13;;;;;;;20.10;7.53;;;;;;;;;;5101339;28;20035;-70
2023/10/24 08:44:59;;;;;;;17.33;8.70;;;;;;;;;;5102048;28;20140;-69
2023/10/24 08:47:47;;;;;;;18.88;7.72;;;;;;;;;;5116764;28;20030;-70
2023/10/24 08:50:33;;;;;;;22.23;8.52;;;;;;;;;;5116590;28;20188;-70
2023/10/24 08:53:18;;;;;;;20.90;7.75;;;;;;;;;;5116716;28;20024;-69
2023/10/24 08:56:08;;;;;;;18.77;8.25;;;;;;;;;;5117043;28;20083;-69
2023/10/24 08:58:56;;;;;;;21.50;7.85;;;;;;;;;;5101441;28;20058;-70
2023/10/24 09:01:41;;;;;;;18.40;7.55;;;;;;;;;;5115373;28;20470;-70
2023/10/24 09:04:29;;;;;;;18.10;7.35;;;;;;;;;;5102456;28;20039;-71
2023/10/24 09:07:15;;;;;;;17.25;6.70;;;;;;;;;;5102302;28;20019;-69
2023/10/24 09:10:00;;;;;;;16.92;7.15;;;;;;;;;;5116190;28;20038;-69
2023/10/24 09:12:46;;;;;;;14.73;7.20;;;;;;;;;;5101150;28;20016;-70
2023/10/24 09:15:34;;;;;;;14.32;7.32;;;;;;;;;;5116262;28;20389;-69
2023/10/24 09:18:19;;;;;;;11.68;6.43;;;;;;;;;;5100656;28;20183;-69
2023/10/24 09:21:06;;;;;;;19.98;7.05;;;;;;;;;;5115841;28;20333;-69
2023/10/24 09:23:52;;;;;;;17.58;6.72;;;;;;;;;;5101288;28;20102;-69
2023/10/24 09:26:37;;;;;;;14.07;6.55;;;;;;;;;;5100085;28;20290;-70
2023/10/24 09:29:27;;;;;;;13.70;6.70;;;;;;;;;;5116224;28;20173;-70
2023/10/24 09:32:15;;;;;;;19.38;6.35;;;;;;;;;;5115796;28;20024;-70
2023/10/24 09:35:03;;;;;;;14.18;5.85;;;;;;;;;;5116345;28;20031;-70
2023/10/24 09:37:48;;;;;;;16.75;6.75;;;;;;;;;;5114722;28;20028;-70
2023/10/24 09:40:36;;;;;;;13.75;6.22;;;;;;;;;;5100670;28;20030;-70
2023/10/24 09:43:27;;;;;;;15.13;6.28;;;;;;;;;;5115724;28;20047;-70
2023/10/24 09:46:15;;;;;;;17.25;5.85;;;;;;;;;;5100759;28;20099;-70
2023/10/24 09:49:01;;;;;;;13.40;5.88;;;;;;;;;;5100572;28;20027;-70
2023/10/24 09:51:46;;;;;;;13.85;6.45;;;;;;;;;;5115046;28;20216;-70
2023/10/24 09:54:32;;;;;;;13.55;6.30;;;;;;;;;;5114796;28;20468;-71
2023/10/24 09:57:19;;;;;;;13.18;6.20;;;;;;;;;;5115149;28;20066;-69
2023/10/24 10:00:09;;;;;;;14.45;6.35;;;;;;;;;;5116788;28;20024;-69
2023/10/24 10:02:58;;;;;;;16.30;7.07;;;;;;;;;;5100341;28;20447;-69
2023/10/24 10:05:44;;;;;;;17.02;8.00;;;;;;;;;;5115852;28;20028;-69
2023/10/24 10:08:31;;;;;;;11.30;6.45;;;;;;;;;;5114073;28;20046;-69
2023/10/24 10:11:21;;;;;;;18.67;6.85;;;;;;;;;;5115605;28;20028;-70
2023/10/24 10:14:13;;;;;;;16.17;6.40;;;;;;;;;;5115046;28;20505;-70
2023/10/24 10:16:58;;;;;;;18.30;6.45;;;;;;;;;;5114295;28;20011;-69
2023/10/24 10:19:53;;;;;;;11.75;5.72;;;;;;;;;;5116472;28;20028;-70
2023/10/24 10:22:48;;;;;;;13.68;6.45;;;;;;;;;;5115787;28;20098;-69
2023/10/24 10:25:39;;;;;;;15.65;6.50;;;;;;;;;;5100597;28;20046;-71
2023/10/24 10:28:40;;;;;;;13.23;6.05;;;;;;;;;;5114779;28;20343;-70
2023/10/24 10:31:29;;;;;;;20.42;6.72;;;;;;;;;;5114390;28;20015;-71
2023/10/24 10:34:14;;;;;;;15.50;6.65;;;;;;;;;;5099292;28;20027;-70
2023/10/24 10:37:00;;;;;;;12.10;6.93;;;;;;;;;;5113396;28;20084;-70
2023/10/24 10:40:02;;;;;;;16.98;6.80;;;;;;;;;;5113964;28;20028;-70
2023/10/24 10:42:49;;;;;;;14.25;7.57;;;;;;;;;;5114436;28;20016;-70
2023/10/24 10:45:36;;;;;;;15.23;7.13;;;;;;;;;;5114333;28;20408;-70
2023/10/24 10:48:22;;;;;;;12.23;7.55;;;;;;;;;;5114179;28;20023;-70
2023/10/24 10:51:08;;;;;;;18.67;7.95;;;;;;;;;;5099185;28;20040;-69
2023/10/24 10:53:56;;;;;;;19.70;8.55;;;;;;;;;;5114256;28;20019;-70
2023/10/24 10:56:43;;;;;;;18.42;8.70;;;;;;;;;;5100030;28;20046;-70
2023/10/24 10:59:31;;;;;;;15.82;7.85;;;;;;;;;;5113952;28;20019;-70
2023/10/24 11:02:28;;;;;;;12.18;7.53;;;;;;;;;;5113395;28;20038;-68
2023/10/24 11:05:32;;;;;;;15.88;7.60;;;;;;;;;;5114166;28;20078;-70
2023/10/24 11:08:22;;;;;;;13.18;6.82;;;;;;;;;;5115527;28;20348;-69
2023/10/24 11:11:11;;;;;;;11.68;6.15;;;;;;;;;;5114182;28;20028;-71
2023/10/24 11:14:14;;;;;;;13.85;6.55;;;;;;;;;;5114637;28;20019;-70
2023/10/24 11:17:01;;;;;;;14.10;5.82;;;;;;;;;;5113931;28;20332;-70
2023/10/24 11:19:46;;;;;;;13.63;6.50;;;;;;;;;;5098845;28;20031;-68
2023/10/24 11:22:32;;;;;;;14.13;6.18;;;;;;;;;;5114247;28;20011;-70
2023/10/24 11:25:18;;;;;;;13.93;6.43;;;;;;;;;;5113675;28;20098;-70
2023/10/24 11:28:08;;;;;;;14.95;6.03;;;;;;;;;;5114070;28;20075;-71
2023/10/24 11:30:54;;;;;;;15.27;5.90;;;;;;;;;;5113540;28;20024;-70
2023/10/24 11:33:41;;;;;;;14.48;5.90;;;;;;;;;;5113164;28;20028;-70
2023/10/24 11:36:27;;;;;;;12.95;5.82;;;;;;;;;;5113911;28;20107;-70
2023/10/24 11:39:15;;;;;;;14.20;5.55;;;;;;;;;;5112757;28;20019;-70
2023/10/24 11:42:04;;;;;;;10.57;4.85;;;;;;;;;;5113775;28;20015;-69
2023/10/24 11:44:49;;;;;;;13.20;5.53;;;;;;;;;;5113706;28;20084;-69
2023/10/24 11:47:35;;;;;;;12.95;5.85;;;;;;;;;;5114646;28;20020;-69
2023/10/24 11:50:43;;;;;;;14.45;6.38;;;;;;;;;;5113545;28;20043;-71
2023/10/24 11:53:29;;;;;;;12.35;6.38;;;;;;;;;;5097367;28;20368;-69
2023/10/24 11:56:15;;;;;;;14.73;6.53;;;;;;;;;;5112721;28;20090;-71
2023/10/24 11:59:01;;;;;;;10.95;6.05;;;;;;;;;;5112920;28;20350;-68
2023/10/24 12:01:47;;;;;;;17.13;6.55;;;;;;;;;;5114040;28;20454;-69
2023/10/24 12:04:32;;;;;;;13.68;5.95;;;;;;;;;;5116364;28;20452;-70
2023/10/24 12:07:18;;;;;;;11.60;5.65;;;;;;;;;;5118142;28;20479;-69
2023/10/24 12:10:08;;;;;;;14.18;5.63;;;;;;;;;;5116536;28;20062;-68
2023/10/24 12:12:57;;;;;;;12.32;4.88;;;;;;;;;;5097736;28;20025;-71
2023/10/24 12:15:43;;;;;;;8.30;4.82;;;;;;;;;;5110137;28;20016;-79
2023/10/24 12:18:29;;;;;;;13.00;5.20;;;;;;;;;;5101497;28;20019;-78
2023/10/24 12:21:15;;;;;;;17.15;5.70;;;;;;;;;;5117844;28;20038;-79
2023/10/24 12:24:01;;;;;;;13.15;5.85;;;;;;;;;;5117018;28;20439;-80
2023/10/24 12:26:47;;;;;;;11.93;4.80;;;;;;;;;;5116925;28;20031;-79
2023/10/24 12:29:33;;;;;;;10.40;5.15;;;;;;;;;;5117191;28;20030;-78
2023/10/24 12:32:18;;;;;;;13.60;5.13;;;;;;;;;;5118479;28;20034;-80
2023/10/24 12:35:06;;;;;;;9.10;4.75;;;;;;;;;;5118415;28;20019;-79
2023/10/24 12:37:51;;;;;;;13.27;4.97;;;;;;;;;;5117475;28;20028;-79
2023/10/24 12:40:40;;;;;;;18.33;5.50;;;;;;;;;;5102192;28;20107;-76
2023/10/24 12:43:26;;;;;;;9.98;4.93;;;;;;;;;;5117296;28;20336;-76
2023/10/24 12:46:14;;;;;;;10.82;5.00;;;;;;;;;;5102715;28;20070;-76
2023/10/24 12:48:59;;;;;;;15.27;6.03;;;;;;;;;;5116659;28;20051;-75
2023/10/24 12:51:45;;;;;;;11.82;6.35;;;;;;;;;;5117398;28;20102;-75
2023/10/24 12:54:31;;;;;;;14.70;5.90;;;;;;;;;;5103248;28;20466;-75
2023/10/24 12:57:16;;;;;;;11.98;6.38;;;;;;;;;;5102053;28;20082;-75
2023/10/24 13:00:03;;;;;;;17.13;7.13;;;;;;;;;;5101824;28;20360;-75
2023/10/24 13:02:48;;;;;;;18.65;7.07;;;;;;;;;;5102250;28;20027;-76
2023/10/24 13:05:34;;;;;;;16.17;6.88;;;;;;;;;;5116411;28;20012;-76
2023/10/24 13:08:20;;;;;;;17.15;8.60;;;;;;;;;;5101047;28;20024;-76
2023/10/24 13:11:06;;;;;;;17.13;10.15;;;;;;;;;;5101369;28;20119;-76
2023/10/24 13:13:51;;;;;;;16.00;9.13;;;;;;;;;;5115738;28;20058;-76
2023/10/24 13:16:37;;;;;;;18.33;8.13;;;;;;;;;;5116197;28;20032;-75
2023/10/24 13:19:23;;;;;;;20.52;9.63;;;;;;;;;;5116084;28;20023;-76
2023/10/24 13:22:09;;;;;;;20.05;7.68;;;;;;;;;;5102483;28;20417;-77
2023/10/24 13:24:54;;;;;;;17.75;7.40;;;;;;;;;;5095951;28;20024;-76
2023/10/24 13:27:43;;;;;;;16.80;8.27;;;;;;;;;;5101202;28;20131;-75
2023/10/24 13:30:31;;;;;;;20.50;8.13;;;;;;;;;;5101723;28;20024;-75
2023/10/24 13:33:18;;;;;;;14.93;7.80;;;;;;;;;;5100186;28;20034;-76
2023/10/24 13:36:03;;;;;;;13.43;7.07;;;;;;;;;;5110590;28;20030;-75
2023/10/24 13:38:50;;;;;;;14.95;7.38;;;;;;;;;;5100964;28;20016;-75
2023/10/24 13:41:35;;;;;;;17.58;8.35;;;;;;;;;;5101181;28;20094;-75
2023/10/24 13:44:21;;;;;;;19.67;8.23;;;;;;;;;;5116259;28;20020;-75
2023/10/24 13:47:07;;;;;;;16.65;7.50;;;;;;;;;;5110896;28;20072;-76
2023/10/24 13:49:52;;;;;;;18.02;7.43;;;;;;;;;;5099539;28;20061;-76
2023/10/24 13:52:38;;;;;;;15.25;7.47;;;;;;;;;;5101539;28;20050;-76
2023/10/24 13:55:24;;;;;;;16.60;7.45;;;;;;;;;;5099404;28;20023;-75
2023/10/24 13:58:11;;;;;;;17.23;7.63;;;;;;;;;;5100732;28;20028;-77
2023/10/24 14:00:57;;;;;;;15.82;7.50;;;;;;;;;;5113781;28;20084;-75
2023/10/24 14:03:43;;;;;;;16.02;7.13;;;;;;;;;;5115435;28;20062;-75
2023/10/24 14:06:29;;;;;;;18.00;7.95;;;;;;;;;;5114575;28;20034;-76
2023/10/24 14:09:14;;;;;;;14.77;8.38;;;;;;;;;;5100600;28;20019;-75
2023/10/24 14:12:00;;;;;;;17.83;7.82;;;;;;;;;;5115267;28;20020;-76
2023/10/24 14:14:46;;;;;;;22.38;8.32;;;;;;;;;;5114670;28;20470;-76
2023/10/24 14:17:31;;;;;;;20.33;7.53;;;;;;;;;;5114029;28;20106;-75
2023/10/24 14:20:17;;;;;;;16.25;7.70;;;;;;;;;;5113964;28;20011;-76
2023/10/24 14:23:03;;;;;;;27.35;9.10;;;;;;;;;;5099792;28;20028;-76
2023/10/24 14:25:49;;;;;;;24.08;8.45;;;;;;;;;;5112851;28;20011;-74
2023/10/24 14:28:34;;;;;;;18.67;8.30;;;;;;;;;;5113967;28;20016;-76
2023/10/24 14:31:20;;;;;;;16.50;8.63;;;;;;;;;;5114411;28;20020;-76
2023/10/24 14:34:05;;;;;;;17.63;8.15;;;;;;;;;;5099626;28;20020;-75
2023/10/24 14:36:51;;;;;;;17.23;8.52;;;;;;;;;;5115055;28;20047;-75
2023/10/24 14:39:37;;;;;;;19.13;8.02;;;;;;;;;;5115672;28;20114;-76
2023/10/24 14:42:23;;;;;;;19.40;8.95;;;;;;;;;;5121177;28;20022;-75
2023/10/24 14:45:09;;;;;;;19.67;9.73;;;;;;;;;;5100998;28;20067;-75
2023/10/24 14:47:55;;;;;;;25.67;9.95;;;;;;;;;;5100232;28;20030;-76
2023/10/24 14:50:40;;;;;;;32.92;10.23;;;;;;;;;;5098384;28;20066;-76
2023/10/24 14:53:26;;;;;;;17.55;9.13;;;;;;;;;;5101409;28;20035;-76
2023/10/24 14:56:12;;;;;;;21.15;9.50;;;;;;;;;;5113258;28;20098;-75
2023/10/24 14:58:57;;;;;;;20.77;9.98;;;;;;;;;;5115221;28;20024;-74
2023/10/24 15:01:43;;;;;;;25.27;10.52;;;;;;;;;;5114266;28;20019;-75
2023/10/24 15:04:29;;;;;;;26.83;10.07;;;;;;;;;;5113666;28;20035;-75
2023/10/24 15:07:14;;;;;;;19.67;10.10;;;;;;;;;;5113934;28;20045;-74
2023/10/24 15:10:00;;;;;;;22.95;9.90;;;;;;;;;;5114208;28;20444;-73
2023/10/24 15:12:46;;;;;;;27.42;10.88;;;;;;;;;;5100006;28;20444;-75
2023/10/24 15:15:32;;;;;;;27.67;11.68;;;;;;;;;;5115397;28;20034;-77
2023/10/24 15:18:18;;;;;;;29.95;12.20;;;;;;;;;;5116748;28;20088;-74
2023/10/24 15:21:04;;;;;;;27.70;11.57;;;;;;;;;;5103440;28;20046;-75
2023/10/24 15:23:50;;;;;;;28.80;12.60;;;;;;;;;;5111474;28;20471;-77
2023/10/24 15:26:36;;;;;;;26.98;12.80;;;;;;;;;;5112662;28;20030;-80
2023/10/24 15:29:21;;;;;;;29.52;14.85;;;;;;;;;;5116555;28;20368;-77
2023/10/24 15:32:08;;;;;;;45.58;19.05;;;;;;;;;;5113774;28;20028;-78
2023/10/24 15:34:54;;;;;;;40.75;17.90;;;;;;;;;;5112896;28;20019;-78
2023/10/24 15:37:39;;;;;;;35.72;15.77;;;;;;;;;;5115793;28;20092;-78
2023/10/24 15:40:25;;;;;;;34.40;16.10;;;;;;;;;;5117593;28;20046;-77
2023/10/24 15:43:11;;;;;;;43.20;18.45;;;;;;;;;;5117913;28;20011;-78
2023/10/24 15:46:15;;;;;;;43.38;18.85;;;;;;;;;;5103322;28;20016;-78
2023/10/24 15:49:00;;;;;;;49.10;21.42;;;;;;;;;;5118518;28;20027;-79
2023/10/24 15:51:46;;;;;;;42.03;18.30;;;;;;;;;;5117184;28;20490;-79
2023/10/24 15:54:36;;;;;;;39.17;16.77;;;;;;;;;;5120359;28;20027;-79
2023/10/24 15:57:21;;;;;;;42.05;16.00;;;;;;;;;;5118990;28;20027;-80
2023/10/24 16:00:07;;;;;;;36.85;15.02;;;;;;;;;;5104002;28;20015;-80
2023/10/24 16:02:53;;;;;;;45.03;16.15;;;;;;;;;;5118355;28;20023;-78
2023/10/24 16:05:39;;;;;;;34.47;13.40;;;;;;;;;;5118084;28;20011;-79
2023/10/24 16:08:24;;;;;;;29.92;14.13;;;;;;;;;;5118539;28;20398;-78
2023/10/24 16:11:11;;;;;;;31.38;13.93;;;;;;;;;;5118403;28;20024;-79
2023/10/24 16:13:57;;;;;;;48.08;15.60;;;;;;;;;;5117025;28;20092;-79
2023/10/24 16:16:42;;;;;;;39.20;15.48;;;;;;;;;;5118023;28;20110;-79
2023/10/24 16:19:28;;;;;;;42.30;16.10;;;;;;;;;;5117019;28;20024;-80
2023/10/24 16:22:13;;;;;;;41.88;16.73;;;;;;;;;;5102551;28;20432;-78